Time;durP1;ratioP1;P1;durP2;ratioP2;P2;SDS_P1;SDS_P2;PMS_P1;PMS_P2;Temp;Humidity;BMP_temperature;BMP_pressure;BME280_temperature;BME280_humidity;BME280_pressure;Samples;Min_cycle;Max_cycle;Signal;HPM_P1;HPM_P2
2021/06/11 00:00:24;;;;;;;14.80;13.20;;;16.20;99.90;;;;;;5117651;28;20508;-59
2021/06/11 00:02:51;;;;;;;17.05;14.05;;;16.20;99.90;;;;;;5113505;28;20448;-60
2021/06/11 00:05:20;;;;;;;13.25;11.43;;;16.20;99.90;;;;;;5107760;28;20392;-60
2021/06/11 00:07:47;;;;;;;15.70;14.00;;;16.30;99.90;;;;;;5110068;28;20266;-59
2021/06/11 00:10:16;;;;;;;15.40;13.90;;;16.30;99.90;;;;;;5106121;28;20859;-59
2021/06/11 00:12:43;;;;;;;13.40;11.50;;;16.30;99.90;;;;;;5115556;28;20256;-58
2021/06/11 00:15:11;;;;;;;13.75;12.27;;;16.30;99.90;;;;;;5103478;28;20474;-59
2021/06/11 00:17:38;;;;;;;14.20;12.80;;;16.20;99.90;;;;;;5102231;28;20547;-59
2021/06/11 00:20:07;;;;;;;13.55;12.15;;;16.20;99.90;;;;;;5117029;28;20238;-60
2021/06/11 00:22:37;;;;;;;14.90;13.25;;;16.20;99.90;;;;;;5110097;28;20209;-60
2021/06/11 00:25:10;;;;;;;16.88;13.10;;;16.10;99.90;;;;;;5115638;28;20473;-60
2021/06/11 00:27:38;;;;;;;14.13;12.50;;;16.20;99.90;;;;;;5111571;28;20386;-59
2021/06/11 00:30:08;;;;;;;17.10;14.10;;;16.30;99.90;;;;;;5106760;28;20268;-58
2021/06/11 00:32:35;;;;;;;14.50;13.02;;;16.20;99.90;;;;;;5100765;28;20248;-59
2021/06/11 00:35:07;;;;;;;12.48;11.25;;;16.30;99.90;;;;;;5113443;28;20278;-59
2021/06/11 00:37:34;;;;;;;15.63;14.07;;;16.40;99.90;;;;;;5119375;28;20194;-59
2021/06/11 00:40:01;;;;;;;13.50;12.15;;;16.50;99.90;;;;;;5120677;28;20209;-59
2021/06/11 00:42:28;;;;;;;13.68;12.07;;;16.50;99.90;;;;;;5120717;28;20700;-61
2021/06/11 00:44:55;;;;;;;13.77;12.43;;;16.40;99.90;;;;;;5109302;28;20264;-59
2021/06/11 00:47:22;;;;;;;12.10;10.93;;;16.40;99.90;;;;;;5117272;28;20319;-60
2021/06/11 00:49:50;;;;;;;13.80;12.27;;;16.40;99.90;;;;;;5119723;28;20259;-59
2021/06/11 00:52:17;;;;;;;13.65;12.05;;;16.30;99.90;;;;;;5106382;28;20499;-59
2021/06/11 00:54:45;;;;;;;14.05;12.65;;;16.50;99.90;;;;;;5105897;28;20268;-59
2021/06/11 00:57:12;;;;;;;12.88;11.48;;;16.50;99.90;;;;;;5101631;28;20204;-59
2021/06/11 00:59:40;;;;;;;12.25;11.05;;;16.50;99.90;;;;;;5103344;28;20331;-59
2021/06/11 01:02:08;;;;;;;12.60;10.93;;;16.50;99.90;;;;;;5114727;28;20211;-59
2021/06/11 01:04:35;;;;;;;13.27;12.00;;;16.40;99.90;;;;;;5116755;28;20226;-60
2021/06/11 01:07:04;;;;;;;14.40;13.03;;;16.40;99.90;;;;;;5117514;28;20385;-59
2021/06/11 01:09:36;;;;;;;13.68;11.93;;;16.40;99.90;;;;;;5106992;28;20615;-59
2021/06/11 01:12:05;;;;;;;17.15;11.63;;;16.50;99.90;;;;;;5120709;28;20263;-59
2021/06/11 01:14:32;;;;;;;15.43;11.82;;;16.50;99.90;;;;;;5119316;28;20255;-59
2021/06/11 01:17:01;;;;;;;16.02;13.85;;;16.30;99.90;;;;;;5112662;28;20204;-59
2021/06/11 01:19:41;;;;;;;13.38;12.07;;;16.10;99.90;;;;;;5107486;28;20251;-59
2021/06/11 01:22:40;;;;;;;15.00;13.38;;;16.10;99.90;;;;;;5114109;28;20298;-59
2021/06/11 01:25:27;;;;;;;15.15;11.88;;;16.10;99.90;;;;;;5079429;28;20303;-59
2021/06/11 01:27:54;;;;;;;12.93;11.65;;;16.10;99.90;;;;;;5101885;28;20209;-58
2021/06/11 01:30:25;;;;;;;12.63;11.38;;;16.30;99.90;;;;;;5119124;28;20213;-59
2021/06/11 01:32:55;;;;;;;12.40;11.20;;;16.30;99.90;;;;;;5106793;28;20493;-59
2021/06/11 01:35:28;;;;;;;14.82;10.65;;;16.30;99.90;;;;;;5111369;28;20214;-59
2021/06/11 01:38:02;;;;;;;14.38;12.95;;;16.40;99.90;;;;;;5118001;28;20209;-59
2021/06/11 01:40:32;;;;;;;13.10;11.70;;;16.30;99.90;;;;;;5118749;28;20214;-59
2021/06/11 01:43:01;;;;;;;11.85;10.75;;;16.30;99.90;;;;;;5112939;28;20601;-59
2021/06/11 01:45:30;;;;;;;17.90;12.00;;;16.30;99.90;;;;;;5102343;28;20258;-58
2021/06/11 01:48:00;;;;;;;13.52;11.70;;;16.40;99.90;;;;;;5102012;28;20680;-59
2021/06/11 01:50:34;;;;;;;13.30;12.05;;;16.40;99.90;;;;;;5112329;28;20211;-59
2021/06/11 01:53:04;;;;;;;12.70;11.40;;;16.40;99.90;;;;;;5103867;28;20207;-58
2021/06/11 01:55:33;;;;;;;14.10;10.57;;;16.40;99.90;;;;;;5119754;27;20378;-60
2021/06/11 01:58:01;;;;;;;18.05;11.52;;;16.40;99.90;;;;;;5114430;28;20254;-58
2021/06/11 02:00:29;;;;;;;15.80;12.80;;;16.50;99.90;;;;;;5109274;28;20232;-60
2021/06/11 02:02:57;;;;;;;13.07;11.80;;;16.50;99.90;;;;;;5118963;27;20534;-59
2021/06/11 02:05:25;;;;;;;13.75;10.93;;;16.40;99.90;;;;;;5111385;28;20615;-59
2021/06/11 02:07:52;;;;;;;15.27;13.63;;;16.40;99.90;;;;;;5110580;28;20203;-59
2021/06/11 02:10:22;;;;;;;14.53;11.37;;;16.40;99.90;;;;;;5119756;28;20454;-59
2021/06/11 02:12:52;;;;;;;12.85;11.55;;;16.40;99.90;;;;;;5114223;28;20732;-58
2021/06/11 02:15:20;;;;;;;12.88;11.63;;;16.40;99.90;;;;;;5117317;28;20222;-59
2021/06/11 02:17:49;;;;;;;13.38;11.98;;;16.40;99.90;;;;;;5115100;28;20373;-59
2021/06/11 02:20:20;;;;;;;14.48;11.70;;;16.10;99.90;;;;;;5118277;28;20244;-59
2021/06/11 02:22:47;;;;;;;20.10;12.63;;;16.20;99.90;;;;;;5118518;28;20206;-59
2021/06/11 02:25:17;;;;;;;13.40;12.10;;;16.20;99.90;;;;;;5115116;28;20419;-59
2021/06/11 02:27:45;;;;;;;12.38;11.27;;;16.20;99.90;;;;;;5117473;28;20268;-59
2021/06/11 02:30:15;;;;;;;12.38;11.13;;;16.20;99.90;;;;;;5115819;28;20207;-59
2021/06/11 02:32:43;;;;;;;17.63;12.77;;;16.20;99.90;;;;;;5116643;27;20207;-59
2021/06/11 02:35:19;;;;;;;18.58;11.90;;;16.20;99.90;;;;;;5112283;28;20513;-59
2021/06/11 02:37:47;;;;;;;14.10;11.10;;;16.00;99.90;;;;;;5116920;28;20491;-59
2021/06/11 02:40:16;;;;;;;11.70;10.57;;;16.10;99.90;;;;;;5114970;27;20211;-59
2021/06/11 02:42:50;;;;;;;13.20;11.93;;;16.20;99.90;;;;;;5100287;28;20199;-59
2021/06/11 02:45:33;;;;;;;12.48;11.18;;;16.30;99.90;;;;;;5101254;28;20251;-59
2021/06/11 02:48:09;;;;;;;13.48;12.13;;;16.30;99.90;;;;;;5106778;28;20206;-58
2021/06/11 02:50:40;;;;;;;15.15;13.50;;;16.20;99.90;;;;;;5115658;28;20508;-59
2021/06/11 02:53:10;;;;;;;16.95;11.80;;;16.20;99.90;;;;;;5118994;28;20202;-58
2021/06/11 02:55:39;;;;;;;12.50;11.35;;;16.30;99.90;;;;;;5117114;28;20214;-59
2021/06/11 02:58:20;;;;;;;13.13;11.80;;;16.30;99.90;;;;;;5116858;28;20226;-58
2021/06/11 03:00:48;;;;;;;14.90;11.77;;;16.40;99.90;;;;;;5117662;28;20246;-59
2021/06/11 03:03:15;;;;;;;11.63;10.43;;;16.30;99.90;;;;;;5111693;28;20574;-59
2021/06/11 03:05:44;;;;;;;13.70;12.30;;;16.40;99.90;;;;;;5107647;28;20260;-59
2021/06/11 03:08:17;;;;;;;11.90;10.70;;;16.40;99.90;;;;;;5117713;28;20551;-59
2021/06/11 03:10:50;;;;;;;13.03;11.87;;;16.50;99.90;;;;;;5112791;28;20228;-58
2021/06/11 03:13:18;;;;;;;13.07;11.60;;;16.50;99.90;;;;;;5108832;28;20451;-58
2021/06/11 03:15:46;;;;;;;12.63;11.32;;;16.50;99.90;;;;;;5115897;28;20214;-60
2021/06/11 03:18:41;;;;;;;12.40;11.15;;;16.50;99.90;;;;;;5117184;28;20361;-59
2021/06/11 03:21:24;;;;;;;14.93;11.88;;;16.50;99.90;;;;;;5100795;28;20206;-60
2021/06/11 03:24:15;;;;;;;12.30;11.20;;;16.70;99.90;;;;;;5112717;27;20228;-59
2021/06/11 03:26:49;;;;;;;12.93;11.65;;;16.80;99.90;;;;;;5099731;28;20661;-59
2021/06/11 03:29:38;;;;;;;13.37;12.00;;;16.80;99.90;;;;;;5109412;28;20498;-59
2021/06/11 03:32:11;;;;;;;17.02;12.70;;;16.90;99.90;;;;;;5101791;28;20440;-60
2021/06/11 03:34:44;;;;;;;14.20;11.50;;;17.10;99.90;;;;;;5106826;28;20315;-59
2021/06/11 03:37:16;;;;;;;13.97;12.60;;;17.10;99.90;;;;;;5102945;28;20742;-58
2021/06/11 03:39:56;;;;;;;12.00;10.10;;;17.20;99.90;;;;;;5105179;28;20441;-59
2021/06/11 03:42:25;;;;;;;11.17;10.13;;;17.40;99.90;;;;;;5114134;28;20488;-59
2021/06/11 03:44:53;;;;;;;14.30;11.80;;;17.50;99.90;;;;;;5117677;28;20479;-59
2021/06/11 03:47:24;;;;;;;11.60;10.50;;;17.80;99.90;;;;;;5104171;28;20544;-59
2021/06/11 03:49:56;;;;;;;12.63;10.50;;;18.00;99.90;;;;;;5106087;28;20449;-59
2021/06/11 03:52:28;;;;;;;11.70;10.60;;;18.10;99.90;;;;;;5109901;28;20495;-59
2021/06/11 03:55:19;;;;;;;12.27;9.47;;;18.10;99.90;;;;;;5116006;28;20791;-58
2021/06/11 03:58:08;;;;;;;9.73;8.83;;;18.30;99.90;;;;;;5101968;28;20469;-58
2021/06/11 04:00:36;;;;;;;10.20;9.20;;;18.30;99.90;;;;;;5114787;28;20430;-59
2021/06/11 04:03:05;;;;;;;8.80;8.00;;;18.40;99.90;;;;;;5113329;28;20453;-58
2021/06/11 04:05:38;;;;;;;13.00;9.90;;;18.50;99.90;;;;;;5108630;28;20474;-59
2021/06/11 04:08:07;;;;;;;11.90;10.80;;;18.60;99.90;;;;;;5109146;28;20420;-58
2021/06/11 04:10:50;;;;;;;11.07;9.10;;;18.60;99.90;;;;;;5116347;28;20641;-59
2021/06/11 04:13:35;;;;;;;10.13;9.00;;;18.70;99.90;;;;;;5110966;28;20438;-58
2021/06/11 04:16:05;;;;;;;17.33;10.53;;;19.00;99.90;;;;;;5112758;28;20487;-58
2021/06/11 04:18:36;;;;;;;12.93;9.80;;;19.00;99.90;;;;;;5116894;28;20448;-58
2021/06/11 04:21:04;;;;;;;12.20;10.23;;;19.10;99.90;;;;;;5111062;28;20429;-59
2021/06/11 04:23:36;;;;;;;12.60;10.60;;;19.20;99.90;;;;;;5116733;28;20423;-59
2021/06/11 04:26:06;;;;;;;11.47;10.30;;;19.20;99.90;;;;;;5110991;28;20493;-59
2021/06/11 04:28:35;;;;;;;9.30;8.50;;;19.30;99.90;;;;;;5103205;28;20762;-58
2021/06/11 04:31:02;;;;;;;11.00;9.90;;;19.20;99.90;;;;;;5109657;28;20413;-58
2021/06/11 04:33:30;;;;;;;10.50;9.40;;;19.30;99.90;;;;;;5116231;28;20417;-59
2021/06/11 04:35:58;;;;;;;10.70;9.50;;;19.60;99.90;;;;;;5107565;28;20783;-59
2021/06/11 04:38:25;;;;;;;12.10;9.67;;;19.80;99.90;;;;;;5109375;28;20430;-58
2021/06/11 04:40:52;;;;;;;12.80;9.53;;;20.00;99.90;;;;;;5116256;28;20474;-60
2021/06/11 04:43:23;;;;;;;10.83;9.73;;;20.20;99.90;;;;;;5116052;28;20674;-61
2021/06/11 04:45:50;;;;;;;8.50;7.70;;;20.40;99.90;;;;;;5102904;28;20489;-59
2021/06/11 04:48:18;;;;;;;15.37;9.97;;;20.30;99.90;;;;;;5095734;28;20417;-59
2021/06/11 04:50:45;;;;;;;9.17;8.37;;;20.90;99.90;;;;;;5110283;28;20435;-59
2021/06/11 04:53:12;;;;;;;9.67;8.77;;;20.90;99.90;;;;;;5117115;28;20554;-56
2021/06/11 04:55:39;;;;;;;10.77;8.73;;;21.00;99.90;;;;;;5110762;28;20479;-58
2021/06/11 04:58:06;;;;;;;8.87;7.97;;;21.00;99.90;;;;;;5116376;28;20405;-60
2021/06/11 05:00:33;;;;;;;11.93;10.73;;;21.10;99.90;;;;;;5112920;28;20736;-59
2021/06/11 05:03:00;;;;;;;12.50;11.20;;;21.20;99.90;;;;;;5116062;28;20413;-58
2021/06/11 05:05:27;;;;;;;10.23;9.00;;;21.30;99.90;;;;;;5113353;28;20479;-60
2021/06/11 05:07:54;;;;;;;10.10;9.20;;;21.30;99.90;;;;;;5113528;28;20443;-60
2021/06/11 05:10:21;;;;;;;10.47;9.50;;;21.30;99.90;;;;;;5111473;28;20554;-59
2021/06/11 05:12:48;;;;;;;10.47;9.43;;;21.20;99.90;;;;;;5116538;28;20438;-59
2021/06/11 05:15:16;;;;;;;10.37;9.37;;;21.20;99.90;;;;;;5116201;28;20442;-58
2021/06/11 05:17:43;;;;;;;10.30;9.23;;;21.40;99.90;;;;;;5114840;27;20443;-58
2021/06/11 05:20:11;;;;;;;11.23;9.17;;;21.70;99.90;;;;;;5114310;28;20506;-60
2021/06/11 05:22:38;;;;;;;9.53;8.53;;;21.60;99.90;;;;;;5115332;28;20440;-58
2021/06/11 05:25:06;;;;;;;8.90;8.10;;;21.70;99.90;;;;;;5117026;28;20498;-59
2021/06/11 05:27:33;;;;;;;9.67;8.70;;;21.80;99.90;;;;;;5118659;28;20447;-59
2021/06/11 05:30:00;;;;;;;12.73;9.33;;;21.90;99.90;;;;;;5113272;28;20539;-59
2021/06/11 05:32:27;;;;;;;10.83;9.07;;;22.10;99.90;;;;;;5099883;28;20518;-57
2021/06/11 05:34:54;;;;;;;17.27;10.83;;;22.30;99.90;;;;;;5102912;28;20479;-58
2021/06/11 05:37:21;;;;;;;8.67;8.03;;;22.40;99.90;;;;;;5110710;28;20424;-59
2021/06/11 05:39:48;;;;;;;11.60;9.60;;;22.80;99.60;;;;;;5102843;28;20822;-58
2021/06/11 05:42:15;;;;;;;10.30;9.30;;;23.10;99.20;;;;;;5098504;28;20419;-58
2021/06/11 05:44:51;;;;;;;12.53;10.57;;;23.30;98.60;;;;;;5096268;27;21024;-58
2021/06/11 05:47:21;;;;;;;11.53;8.67;;;23.60;98.20;;;;;;5111462;28;20464;-59
2021/06/11 05:49:48;;;;;;;9.67;8.77;;;23.60;98.10;;;;;;5115299;28;20434;-60
2021/06/11 05:52:15;;;;;;;11.30;9.80;;;23.70;98.30;;;;;;5113453;28;21020;-58
2021/06/11 05:54:42;;;;;;;10.20;9.37;;;23.90;97.30;;;;;;5115873;28;20753;-58
2021/06/11 05:57:10;;;;;;;11.07;10.17;;;23.90;97.30;;;;;;5113352;27;20435;-58
2021/06/11 05:59:37;;;;;;;11.23;9.60;;;23.90;97.10;;;;;;5118778;28;20420;-59
2021/06/11 06:02:04;;;;;;;9.93;8.93;;;24.20;96.90;;;;;;5115763;28;20409;-58
2021/06/11 06:04:31;;;;;;;10.50;9.60;;;24.60;96.90;;;;;;5116078;28;20450;-58
2021/06/11 06:06:58;;;;;;;9.47;8.57;;;24.50;96.30;;;;;;5118229;27;20408;-59
2021/06/11 06:09:25;;;;;;;11.93;9.40;;;24.50;96.30;;;;;;5118801;28;20460;-58
2021/06/11 06:11:52;;;;;;;10.53;9.73;;;24.60;95.80;;;;;;5117712;28;20625;-60
2021/06/11 06:14:20;;;;;;;10.73;9.70;;;24.60;95.80;;;;;;5111634;28;20451;-58
2021/06/11 06:16:47;;;;;;;11.07;10.27;;;24.80;95.10;;;;;;5111394;28;20438;-59
2021/06/11 06:19:14;;;;;;;10.83;10.13;;;24.90;94.50;;;;;;5106653;28;20501;-59
2021/06/11 06:21:45;;;;;;;12.10;10.33;;;25.00;94.40;;;;;;5104375;28;20438;-59
2021/06/11 06:24:12;;;;;;;11.60;10.53;;;25.40;94.00;;;;;;5108684;28;20440;-58
2021/06/11 06:26:39;;;;;;;11.10;10.03;;;26.20;92.20;;;;;;5102546;28;20486;-57
2021/06/11 06:29:06;;;;;;;12.57;11.47;;;27.30;90.30;;;;;;5099769;28;20446;-56
2021/06/11 06:31:33;;;;;;;11.33;10.30;;;27.80;89.40;;;;;;5100846;28;20534;-58
2021/06/11 06:34:00;;;;;;;11.63;10.83;;;28.30;88.50;;;;;;5111891;28;20491;-57
2021/06/11 06:36:27;;;;;;;11.87;10.87;;;28.40;87.20;;;;;;5111054;28;20555;-58
2021/06/11 06:38:57;;;;;;;11.20;10.40;;;28.40;87.80;;;;;;5111978;28;20475;-58
2021/06/11 06:41:24;;;;;;;11.57;10.97;;;28.40;85.80;;;;;;5110244;28;20438;-58
2021/06/11 06:43:51;;;;;;;13.13;12.30;;;29.00;83.70;;;;;;5104523;28;20442;-58
2021/06/11 06:46:22;;;;;;;12.90;12.10;;;29.80;81.00;;;;;;5103416;28;20695;-58
2021/06/11 06:48:50;;;;;;;13.37;12.37;;;30.70;78.20;;;;;;5116572;28;20439;-58
2021/06/11 06:51:19;;;;;;;13.67;12.87;;;32.10;73.00;;;;;;5109823;28;20491;-57
2021/06/11 06:53:47;;;;;;;12.90;12.10;;;33.80;67.60;;;;;;5115721;28;20440;-57
2021/06/11 06:56:14;;;;;;;14.63;13.87;;;34.10;64.20;;;;;;5111806;28;20446;-58
2021/06/11 06:58:41;;;;;;;13.13;12.50;;;35.80;59.10;;;;;;5110579;28;20455;-58
2021/06/11 07:01:08;;;;;;;13.67;12.97;;;36.20;56.40;;;;;;5109200;28;20480;-58
2021/06/11 07:03:35;;;;;;;13.50;12.80;;;35.90;54.60;;;;;;5113452;28;20430;-58
2021/06/11 07:06:03;;;;;;;14.43;13.60;;;35.30;55.40;;;;;;5108522;27;20515;-58
2021/06/11 07:08:33;;;;;;;12.37;11.73;;;35.90;54.60;;;;;;5112578;28;20489;-59
2021/06/11 07:11:00;;;;;;;12.80;12.20;;;36.20;53.40;;;;;;5114357;28;20468;-57
2021/06/11 07:13:31;;;;;;;12.63;11.77;;;35.60;51.30;;;;;;5107090;28;20443;-58
2021/06/11 07:15:59;;;;;;;12.93;12.23;;;35.50;50.30;;;;;;5113689;28;20433;-58
2021/06/11 07:18:26;;;;;;;12.33;11.73;;;35.80;48.50;;;;;;5101830;27;20452;-59
2021/06/11 07:20:53;;;;;;;13.17;12.47;;;36.10;48.10;;;;;;5100195;28;20584;-58
2021/06/11 07:23:21;;;;;;;12.50;11.90;;;36.40;48.40;;;;;;5112714;28;20669;-58
2021/06/11 07:25:48;;;;;;;12.30;11.80;;;36.20;48.40;;;;;;5117342;28;20506;-58
2021/06/11 07:28:15;;;;;;;12.63;12.03;;;36.20;47.40;;;;;;5110365;28;20449;-58
2021/06/11 07:30:42;;;;;;;14.20;13.47;;;36.20;47.40;;;;;;5113303;28;20753;-58
2021/06/11 07:33:09;;;;;;;12.37;11.57;;;37.00;47.30;;;;;;5102792;28;20799;-59
2021/06/11 07:35:37;;;;;;;13.23;12.63;;;37.90;47.50;;;;;;5099512;28;20509;-57
2021/06/11 07:38:05;;;;;;;12.50;12.00;;;38.00;44.80;;;;;;5112681;28;20585;-58
2021/06/11 07:40:51;;;;;;;11.60;11.10;;;36.90;45.10;;;;;;5105321;28;20435;-57
2021/06/11 07:43:20;;;;;;;13.87;13.17;;;36.70;44.90;;;;;;5110088;28;20548;-58
2021/06/11 07:45:49;;;;;;;12.73;11.83;;;37.40;44.40;;;;;;5112617;28;20483;-58
2021/06/11 07:48:17;;;;;;;12.47;11.87;;;38.00;43.80;;;;;;5097872;28;20439;-58
2021/06/11 07:50:44;;;;;;;12.23;11.53;;;38.10;43.30;;;;;;5113606;28;20453;-57
2021/06/11 07:53:11;;;;;;;12.90;12.20;;;37.90;42.70;;;;;;5116229;28;20788;-58
2021/06/11 07:55:40;;;;;;;13.23;12.53;;;37.90;43.50;;;;;;5115789;27;20446;-58
2021/06/11 07:58:07;;;;;;;11.87;11.30;;;38.10;43.10;;;;;;5117085;28;20425;-58
2021/06/11 08:00:34;;;;;;;12.63;11.83;;;36.70;44.70;;;;;;5116152;28;20768;-59
2021/06/11 08:03:03;;;;;;;12.13;11.50;;;34.90;45.80;;;;;;5118056;28;20469;-59
2021/06/11 08:05:30;;;;;;;11.57;11.07;;;33.30;48.70;;;;;;5111279;28;20482;-58
2021/06/11 08:07:57;;;;;;;11.93;11.33;;;32.20;51.00;;;;;;5109564;28;20491;-59
2021/06/11 08:10:26;;;;;;;11.73;10.93;;;31.60;52.30;;;;;;5109127;28;20462;-57
2021/06/11 08:12:54;;;;;;;12.37;11.57;;;31.10;53.90;;;;;;5116226;28;20438;-58
2021/06/11 08:15:23;;;;;;;11.77;11.17;;;30.80;53.90;;;;;;5106429;28;20443;-61
2021/06/11 08:17:50;;;;;;;13.23;12.33;;;31.20;54.00;;;;;;5106839;28;20446;-58
2021/06/11 08:20:18;;;;;;;13.90;12.80;;;33.30;50.70;;;;;;5104067;28;20478;-58
2021/06/11 08:22:46;;;;;;;12.20;11.60;;;34.60;49.20;;;;;;5109122;28;20434;-58
2021/06/11 08:25:17;;;;;;;14.77;13.97;;;36.20;47.20;;;;;;5112229;28;20644;-58
2021/06/11 08:27:47;;;;;;;13.33;12.63;;;36.80;45.30;;;;;;5114584;28;20505;-58
2021/06/11 08:30:15;;;;;;;13.60;13.00;;;37.40;43.80;;;;;;5114557;28;20865;-58
2021/06/11 08:32:48;;;;;;;14.40;13.60;;;38.10;42.10;;;;;;5107805;28;20623;-57
2021/06/11 08:35:16;;;;;;;13.30;12.60;;;38.70;41.30;;;;;;5112667;28;20644;-59
2021/06/11 08:37:43;;;;;;;12.80;12.10;;;39.70;41.00;;;;;;5112466;28;20439;-58
2021/06/11 08:40:11;;;;;;;12.20;11.60;;;40.30;39.10;;;;;;5114563;28;20784;-57
2021/06/11 08:42:39;;;;;;;12.87;12.17;;;39.60;39.40;;;;;;5108575;28;20442;-59
2021/06/11 08:45:10;;;;;;;12.50;11.90;;;39.80;39.10;;;;;;5101004;28;20446;-59
2021/06/11 08:47:43;;;;;;;11.50;10.90;;;38.60;39.00;;;;;;5118342;28;20446;-58
2021/06/11 08:50:11;;;;;;;11.43;10.80;;;35.00;42.90;;;;;;5112344;28;20474;-58
2021/06/11 08:52:38;;;;;;;10.50;10.00;;;32.70;46.10;;;;;;5118483;28;20762;-57
2021/06/11 08:55:11;;;;;;;12.03;11.40;;;33.30;46.30;;;;;;5120168;28;20444;-58
2021/06/11 08:57:39;;;;;;;12.73;11.80;;;34.50;43.00;;;;;;5116553;28;20438;-59
2021/06/11 09:00:09;;;;;;;11.30;10.60;;;33.80;45.70;;;;;;5120653;28;20434;-60
2021/06/11 09:03:09;;;;;;;10.20;9.60;;;34.20;43.90;;;;;;5118580;28;20431;-58
2021/06/11 09:05:38;;;;;;;9.77;9.37;;;32.40;44.70;;;;;;5112819;27;20484;-59
2021/06/11 09:08:13;;;;;;;9.47;9.07;;;31.80;46.30;;;;;;5106652;28;20489;-58
2021/06/11 09:10:42;;;;;;;9.27;8.77;;;30.30;48.00;;;;;;5119409;28;20465;-59
2021/06/11 09:13:10;;;;;;;8.77;8.37;;;29.70;49.60;;;;;;5120240;28;20434;-58
2021/06/11 09:15:37;;;;;;;9.17;8.70;;;29.40;50.20;;;;;;5120143;28;20434;-58
2021/06/11 09:18:18;;;;;;;8.87;8.47;;;30.10;49.80;;;;;;5120551;28;20487;-58
2021/06/11 09:20:45;;;;;;;9.20;8.80;;;31.20;49.10;;;;;;5119039;28;20532;-58
2021/06/11 09:23:14;;;;;;;10.20;9.60;;;32.70;44.80;;;;;;5117043;28;20635;-59
2021/06/11 09:25:45;;;;;;;9.80;9.30;;;34.10;43.60;;;;;;5116977;28;20431;-60
2021/06/11 09:28:17;;;;;;;8.97;8.47;;;32.80;44.10;;;;;;5115201;28;20444;-60
2021/06/11 09:30:44;;;;;;;8.27;7.97;;;31.60;46.30;;;;;;5113695;28;20479;-59
2021/06/11 09:33:20;;;;;;;8.80;8.40;;;31.10;46.30;;;;;;5113710;28;20691;-58
2021/06/11 09:35:54;;;;;;;9.27;8.73;;;29.40;48.20;;;;;;5116935;27;20442;-58
2021/06/11 09:38:28;;;;;;;9.23;8.73;;;27.90;51.50;;;;;;5113076;28;20491;-58
2021/06/11 09:40:58;;;;;;;8.57;8.07;;;27.40;52.70;;;;;;5110620;28;20438;-58
2021/06/11 09:43:30;;;;;;;8.23;7.83;;;27.40;54.20;;;;;;5104290;28;20461;-59
2021/06/11 09:46:10;;;;;;;7.90;7.60;;;27.50;54.40;;;;;;5117185;27;20833;-58
2021/06/11 09:48:49;;;;;;;8.23;7.83;;;27.60;53.00;;;;;;5112905;28;20468;-59
2021/06/11 09:51:23;;;;;;;8.17;7.77;;;26.70;54.30;;;;;;5109415;28;20441;-59
2021/06/11 09:53:51;;;;;;;7.80;7.40;;;25.90;56.40;;;;;;5115830;28;20765;-58
2021/06/11 09:56:26;;;;;;;7.60;7.20;;;25.90;56.60;;;;;;5119237;28;20541;-58
2021/06/11 09:58:57;;;;;;;8.10;7.70;;;26.00;57.30;;;;;;5107730;28;20529;-60
2021/06/11 10:01:26;;;;;;;7.23;6.93;;;25.90;57.00;;;;;;5119099;28;20517;-59
2021/06/11 10:03:55;;;;;;;8.53;7.73;;;26.20;56.90;;;;;;5112139;27;20480;-58
2021/06/11 10:06:22;;;;;;;8.93;8.53;;;26.20;56.50;;;;;;5113384;28;20488;-58
2021/06/11 10:08:52;;;;;;;8.73;8.23;;;26.40;56.10;;;;;;5117149;28;20498;-59
2021/06/11 10:11:25;;;;;;;7.73;7.40;;;26.30;56.70;;;;;;5119195;28;20453;-60
2021/06/11 10:13:54;;;;;;;7.13;6.83;;;26.50;56.30;;;;;;5108294;28;20742;-58
2021/06/11 10:16:21;;;;;;;6.80;6.47;;;26.70;53.80;;;;;;5111217;28;20442;-58
2021/06/11 10:18:49;;;;;;;7.93;7.40;;;26.80;54.10;;;;;;5110286;28;20462;-57
2021/06/11 10:21:17;;;;;;;6.70;6.40;;;26.60;55.50;;;;;;5109902;28;20501;-58
2021/06/11 10:23:44;;;;;;;8.20;7.80;;;26.60;55.20;;;;;;5118888;28;20416;-58
2021/06/11 10:26:12;;;;;;;8.10;7.80;;;26.70;55.50;;;;;;5118089;28;20483;-58
2021/06/11 10:28:48;;;;;;;7.53;7.13;;;26.90;55.10;;;;;;5115780;28;20442;-57
2021/06/11 10:31:20;;;;;;;8.53;8.03;;;26.70;54.50;;;;;;5107065;28;20648;-58
2021/06/11 10:33:51;;;;;;;7.20;6.90;;;26.80;55.40;;;;;;5117767;28;20470;-62
2021/06/11 10:39:00;;;;;;;6.50;6.20;;;27.60;52.50;;;;;;5111678;28;20474;-59
2021/06/11 10:41:48;;;;;;;7.30;6.90;;;27.90;51.70;;;;;;5108168;28;20480;-59
2021/06/11 10:44:37;;;;;;;7.30;6.90;;;28.10;51.00;;;;;;5117661;28;20460;-59
2021/06/11 10:47:16;;;;;;;7.27;6.87;;;27.60;51.90;;;;;;5117937;28;20641;-58
2021/06/11 10:49:58;;;;;;;7.30;6.90;;;27.40;52.40;;;;;;5112856;28;20440;-59
2021/06/11 10:52:29;;;;;;;6.67;6.37;;;27.10;51.60;;;;;;5114626;28;20438;-59
2021/06/11 10:54:57;;;;;;;6.63;6.30;;;26.80;51.00;;;;;;5117479;28;20465;-58
2021/06/11 10:57:24;;;;;;;6.83;6.43;;;26.80;52.10;;;;;;5115251;28;20632;-59
2021/06/11 10:59:51;;;;;;;6.77;6.47;;;27.10;50.20;;;;;;5118142;28;20480;-59
2021/06/11 11:02:19;;;;;;;6.73;6.53;;;27.40;50.50;;;;;;5115818;28;20809;-60
2021/06/11 11:04:48;;;;;;;7.00;6.60;;;27.70;49.10;;;;;;5115426;28;20435;-58
2021/06/11 11:07:28;;;;;;;7.57;7.27;;;28.00;50.50;;;;;;5104371;28;20476;-58
2021/06/11 11:09:57;;;;;;;7.30;6.90;;;28.30;50.50;;;;;;5104570;28;20458;-59
2021/06/11 11:12:32;;;;;;;8.10;7.10;;;28.10;50.70;;;;;;5110867;28;20447;-59
2021/06/11 11:15:00;;;;;;;7.83;7.17;;;27.50;51.40;;;;;;5111026;28;20452;-58
2021/06/11 11:17:28;;;;;;;7.23;6.83;;;27.50;52.10;;;;;;5111861;28;20787;-58
2021/06/11 11:20:05;;;;;;;7.90;7.50;;;27.40;52.80;;;;;;5117314;28;20459;-59
2021/06/11 11:22:38;;;;;;;7.33;6.80;;;27.80;53.00;;;;;;5115581;28;20691;-59
2021/06/11 11:25:12;;;;;;;6.53;6.23;;;28.20;52.10;;;;;;5116676;28;20413;-60
2021/06/11 11:27:50;;;;;;;6.90;6.60;;;28.20;50.80;;;;;;5110094;28;20526;-59
2021/06/11 11:30:20;;;;;;;7.23;6.93;;;27.80;51.10;;;;;;5116434;28;20447;-57
2021/06/11 11:32:47;;;;;;;7.10;6.70;;;27.80;51.80;;;;;;5115089;28;20569;-59
2021/06/11 11:35:16;;;;;;;7.00;6.50;;;27.70;51.10;;;;;;5110327;28;20443;-59
2021/06/11 11:37:44;;;;;;;6.53;6.13;;;27.60;50.50;;;;;;5110007;28;20667;-59
2021/06/11 11:40:12;;;;;;;6.97;6.67;;;27.50;49.60;;;;;;5106071;28;20724;-60
2021/06/11 11:42:39;;;;;;;6.50;6.20;;;27.70;49.60;;;;;;5114538;28;20441;-59
2021/06/11 11:45:07;;;;;;;6.23;5.87;;;28.00;48.30;;;;;;5106405;28;20472;-58
2021/06/11 11:47:34;;;;;;;6.17;5.90;;;27.90;48.60;;;;;;5108141;28;20487;-58
2021/06/11 11:50:03;;;;;;;6.27;6.07;;;28.00;47.60;;;;;;5115050;27;20538;-60
2021/06/11 11:52:32;;;;;;;6.80;6.50;;;28.20;47.70;;;;;;5108033;27;20460;-59
2021/06/11 11:55:00;;;;;;;6.60;6.30;;;28.30;47.50;;;;;;5111332;27;20505;-58
2021/06/11 11:57:27;;;;;;;6.40;5.90;;;28.30;47.60;;;;;;5106549;28;20499;-58
2021/06/11 11:59:54;;;;;;;6.23;5.90;;;27.70;47.80;;;;;;5107595;28;20441;-59
2021/06/11 12:02:22;;;;;;;6.17;5.87;;;27.40;50.40;;;;;;5104391;28;20443;-58
2021/06/11 12:04:49;;;;;;;6.37;5.97;;;27.50;50.10;;;;;;5101703;28;20513;-58
2021/06/11 12:07:16;;;;;;;6.27;6.00;;;27.80;50.30;;;;;;5109426;28;20484;-59
2021/06/11 12:09:43;;;;;;;5.97;5.77;;;27.10;50.50;;;;;;5109916;28;20647;-59
2021/06/11 12:12:10;;;;;;;6.47;6.17;;;27.80;51.40;;;;;;5112773;28;20757;-60
2021/06/11 12:14:38;;;;;;;6.20;6.00;;;27.60;51.00;;;;;;5109218;28;20448;-59
2021/06/11 12:17:05;;;;;;;6.30;6.00;;;27.50;52.90;;;;;;5114074;28;20455;-59
2021/06/11 12:19:33;;;;;;;8.70;8.00;;;27.40;52.50;;;;;;5109376;28;20480;-59
2021/06/11 12:22:00;;;;;;;9.63;8.93;;;27.60;52.50;;;;;;5114478;28;20422;-61
2021/06/11 12:24:27;;;;;;;7.03;6.63;;;27.90;50.30;;;;;;5104920;28;20621;-57
2021/06/11 12:26:54;;;;;;;6.53;6.23;;;28.20;49.80;;;;;;5116029;28;20857;-59
2021/06/11 12:29:21;;;;;;;7.27;6.97;;;28.50;48.80;;;;;;5109344;28;20449;-59
2021/06/11 12:31:49;;;;;;;6.83;6.53;;;28.50;48.50;;;;;;5109122;28;20442;-60
2021/06/11 12:34:17;;;;;;;6.10;5.90;;;28.20;48.20;;;;;;5109267;28;20454;-58
2021/06/11 12:36:45;;;;;;;5.53;5.33;;;28.00;49.60;;;;;;5116616;28;20442;-57
2021/06/11 12:39:12;;;;;;;5.43;5.23;;;27.80;47.70;;;;;;5106202;28;20445;-58
2021/06/11 12:41:40;;;;;;;5.10;4.90;;;27.90;47.40;;;;;;5101010;28;20450;-60
2021/06/11 12:44:15;;;;;;;5.90;5.60;;;27.90;47.20;;;;;;5095764;28;20468;-59
2021/06/11 12:46:47;;;;;;;6.00;5.70;;;27.40;49.00;;;;;;5108415;28;20568;-58
2021/06/11 12:49:15;;;;;;;6.40;6.10;;;26.50;56.80;;;;;;5110820;28;20442;-58
2021/06/11 12:51:43;;;;;;;6.90;6.53;;;25.10;57.20;;;;;;5116214;28;20446;-59